createdAt,value
2019-01-25T00:00:26.685Z,98.30
2019-01-25T00:02:55.851Z,98.30
2019-01-25T00:05:24.237Z,98.40
2019-01-25T00:07:52.652Z,98.30
2019-01-25T00:10:21.042Z,98.30
2019-01-25T00:12:49.455Z,98.30
2019-01-25T00:15:18.876Z,98.30
2019-01-25T00:17:47.266Z,98.30
2019-01-25T00:20:15.681Z,98.40
2019-01-25T00:22:44.082Z,98.30
2019-01-25T00:25:12.502Z,98.40
2019-01-25T00:27:40.901Z,98.40
2019-01-25T00:30:12.530Z,98.50
2019-01-25T00:32:40.907Z,98.40
2019-01-25T00:35:09.321Z,98.50
2019-01-25T00:37:37.709Z,98.40
2019-01-25T00:40:11.953Z,98.40
2019-01-25T00:42:40.335Z,98.40
2019-01-25T00:45:10.402Z,98.40
2019-01-25T00:47:38.785Z,98.50
2019-01-25T00:50:10.425Z,98.60
2019-01-25T00:52:38.846Z,98.70
2019-01-25T00:55:08.372Z,98.70
2019-01-25T00:57:36.797Z,98.70
2019-01-25T01:00:11.160Z,98.70
2019-01-25T01:02:39.573Z,98.70
2019-01-25T01:05:07.953Z,98.70
2019-01-25T01:07:36.332Z,98.80
2019-01-25T01:10:13.743Z,98.80
2019-01-25T01:12:37.116Z,98.80
2019-01-25T01:15:08.840Z,98.80
2019-01-25T01:17:37.605Z,98.80
2019-01-25T01:20:09.231Z,98.80
2019-01-25T01:22:37.674Z,98.80
2019-01-25T01:25:06.242Z,98.80
2019-01-25T01:27:34.630Z,98.80
2019-01-25T01:30:04.249Z,98.80
2019-01-25T01:32:32.676Z,99.20
2019-01-25T01:35:01.061Z,99.10
2019-01-25T01:37:29.472Z,98.90
2019-01-25T01:39:57.853Z,98.90
2019-01-25T01:42:26.266Z,98.90
2019-01-25T01:44:54.645Z,98.90
2019-01-25T01:47:23.031Z,98.90
2019-01-25T01:49:51.452Z,98.90
2019-01-25T01:52:19.843Z,98.90
2019-01-25T01:54:48.257Z,98.90
2019-01-25T01:57:18.269Z,98.80
2019-01-25T01:59:46.685Z,98.80
2019-01-25T02:02:15.061Z,98.80
2019-01-25T02:04:43.446Z,98.70
2019-01-25T02:07:11.866Z,98.70
2019-01-25T02:09:40.358Z,98.70
2019-01-25T02:12:08.765Z,98.70
2019-01-25T02:14:37.152Z,98.60
2019-01-25T02:17:05.577Z,98.60
2019-01-25T02:19:33.961Z,98.60
2019-01-25T02:22:02.378Z,98.60
2019-01-25T02:24:30.761Z,98.60
2019-01-25T02:26:59.256Z,99.00
2019-01-25T02:29:27.636Z,98.50
2019-01-25T02:31:56.026Z,98.50
2019-01-25T02:34:24.436Z,98.50
2019-01-25T02:36:52.820Z,98.60
2019-01-25T02:39:21.517Z,98.70
2019-01-25T02:41:49.899Z,98.60
2019-01-25T02:44:18.277Z,98.60
2019-01-25T02:46:46.701Z,98.70
2019-01-25T02:49:16.188Z,98.70
2019-01-25T02:51:44.610Z,98.70
2019-01-25T02:54:13.007Z,98.60
2019-01-25T02:56:41.438Z,98.60
2019-01-25T02:59:09.831Z,98.60
2019-01-25T03:01:38.228Z,98.60
2019-01-25T03:04:06.942Z,98.60
2019-01-25T03:06:35.443Z,98.50
2019-01-25T03:09:10.828Z,98.60
2019-01-25T03:11:39.232Z,98.60
2019-01-25T03:14:07.618Z,98.60
2019-01-25T03:16:36.080Z,98.50
2019-01-25T03:19:04.500Z,98.60
2019-01-25T03:21:32.882Z,98.60
2019-01-25T03:24:01.307Z,98.40
2019-01-25T03:26:29.705Z,98.40
2019-01-25T03:28:58.133Z,98.50
2019-01-25T03:31:26.528Z,98.50
2019-01-25T03:33:55.039Z,98.40
2019-01-25T03:36:23.460Z,98.40
2019-01-25T03:38:51.850Z,98.40
2019-01-25T03:41:20.275Z,98.40
2019-01-25T03:43:48.677Z,98.40
2019-01-25T03:46:17.107Z,98.30
2019-01-25T03:48:45.492Z,98.40
2019-01-25T03:51:13.924Z,98.40
2019-01-25T03:53:42.322Z,98.30
2019-01-25T03:56:10.739Z,98.40
2019-01-25T03:58:39.136Z,98.40
2019-01-25T04:01:07.518Z,98.50
2019-01-25T04:03:35.942Z,98.30
2019-01-25T04:06:04.405Z,98.20
2019-01-25T04:08:32.842Z,98.10
2019-01-25T04:11:03.546Z,98.00
2019-01-25T04:13:31.313Z,98.20
2019-01-25T04:15:59.710Z,98.20
2019-01-25T04:18:28.172Z,98.20
2019-01-25T04:20:56.607Z,98.30
2019-01-25T04:23:24.994Z,98.20
2019-01-25T04:25:53.418Z,98.20
2019-01-25T04:28:21.806Z,98.20
2019-01-25T04:30:50.231Z,98.20
2019-01-25T04:33:18.615Z,98.20
2019-01-25T04:35:47.004Z,98.20
2019-01-25T04:38:15.430Z,98.10
2019-01-25T04:40:43.841Z,98.10
2019-01-25T04:43:12.260Z,98.10
2019-01-25T04:45:40.654Z,98.10
2019-01-25T04:48:12.414Z,98.10
2019-01-25T04:50:40.816Z,98.00
2019-01-25T04:53:09.220Z,97.90
2019-01-25T04:55:37.632Z,97.90
2019-01-25T04:58:11.219Z,98.00
2019-01-25T05:00:39.635Z,97.90
2019-01-25T05:03:08.027Z,97.60
2019-01-25T05:05:36.439Z,97.50
2019-01-25T05:08:10.891Z,97.80
2019-01-25T05:10:39.285Z,97.80
2019-01-25T05:13:09.258Z,97.80
2019-01-25T05:15:37.663Z,97.80
2019-01-25T05:18:07.245Z,97.80
2019-01-25T05:20:35.655Z,97.90
2019-01-25T05:23:06.623Z,97.80
2019-01-25T05:25:35.006Z,97.80
2019-01-25T05:28:09.793Z,97.70
2019-01-25T05:30:38.364Z,97.40
2019-01-25T05:33:06.833Z,97.50
2019-01-25T05:35:36.837Z,97.40
2019-01-25T05:38:05.299Z,97.20
2019-01-25T05:40:33.710Z,97.20
2019-01-25T05:43:02.152Z,97.20
2019-01-25T05:45:30.534Z,97.30
2019-01-25T05:47:58.939Z,97.20
2019-01-25T05:50:28.272Z,97.30
2019-01-25T05:52:56.728Z,97.50
2019-01-25T05:55:25.145Z,97.60
2019-01-25T05:57:59.698Z,97.30
2019-01-25T06:00:35.859Z,97.20
2019-01-25T06:03:15.016Z,97.10
2019-01-25T06:05:45.247Z,96.80
2019-01-25T06:08:34.263Z,96.70
2019-01-25T06:11:05.078Z,96.60
2019-01-25T06:13:33.661Z,96.70
2019-01-25T06:16:02.146Z,96.80
2019-01-25T06:18:30.788Z,96.70
2019-01-25T06:20:59.322Z,96.60
2019-01-25T06:23:27.702Z,96.30
2019-01-25T06:25:58.172Z,96.20
2019-01-25T06:28:26.571Z,96.20
2019-01-25T06:30:55.083Z,96.10
2019-01-25T06:33:23.513Z,95.80
2019-01-25T06:35:51.996Z,95.90
2019-01-25T06:38:20.500Z,95.00
2019-01-25T06:40:49.008Z,95.10
2019-01-25T06:43:17.434Z,95.30
2019-01-25T06:45:45.913Z,95.50
2019-01-25T06:48:14.338Z,95.50
2019-01-25T06:50:42.746Z,95.80
2019-01-25T06:53:11.185Z,95.90
2019-01-25T06:55:39.598Z,95.50
2019-01-25T06:58:15.432Z,95.60
2019-01-25T07:00:47.941Z,95.30
2019-01-25T07:03:16.372Z,95.20
2019-01-25T07:05:44.799Z,95.30
2019-01-25T07:08:14.847Z,95.40
2019-01-25T07:10:43.273Z,95.30
2019-01-25T07:13:11.666Z,95.30
2019-01-25T07:15:40.113Z,95.40
2019-01-25T07:18:08.512Z,95.20
2019-01-25T07:20:36.932Z,95.10
2019-01-25T07:23:05.339Z,95.10
2019-01-25T07:25:33.763Z,95.00
2019-01-25T07:28:02.175Z,94.80
2019-01-25T07:30:30.679Z,94.70
2019-01-25T07:32:59.092Z,94.90
2019-01-25T07:35:27.501Z,94.90
2019-01-25T07:37:55.952Z,94.70
2019-01-25T07:40:24.352Z,94.70
2019-01-25T07:42:52.815Z,94.60
2019-01-25T07:45:21.224Z,94.60
2019-01-25T07:47:49.688Z,94.70
2019-01-25T07:50:18.084Z,94.20
2019-01-25T07:52:46.485Z,94.20
2019-01-25T07:55:15.102Z,94.00
2019-01-25T07:57:43.573Z,93.90
2019-01-25T08:00:18.001Z,93.70
2019-01-25T08:02:46.504Z,93.70
2019-01-25T08:05:14.911Z,93.70
2019-01-25T08:07:43.342Z,93.60
2019-01-25T08:10:19.939Z,93.10
2019-01-25T08:12:48.401Z,92.60
2019-01-25T08:15:24.181Z,92.50
2019-01-25T08:17:52.597Z,92.30
2019-01-25T08:20:20.996Z,92.40
2019-01-25T08:22:49.432Z,92.50
2019-01-25T08:25:17.873Z,93.10
2019-01-25T08:27:46.280Z,93.00
2019-01-25T08:30:17.567Z,93.40
2019-01-25T08:32:46.003Z,92.10
2019-01-25T08:35:14.987Z,89.90
2019-01-25T08:37:43.363Z,84.50
2019-01-25T08:40:14.321Z,82.80
2019-01-25T08:42:42.704Z,82.80
2019-01-25T08:45:13.751Z,85.00
2019-01-25T08:47:43.090Z,86.30
2019-01-25T08:50:26.519Z,86.90
2019-01-25T08:52:54.897Z,88.80
2019-01-25T08:55:23.362Z,90.20
2019-01-25T08:57:51.776Z,87.70
2019-01-25T09:00:25.223Z,82.70
2019-01-25T09:02:53.637Z,74.00
2019-01-25T09:05:22.104Z,68.30
2019-01-25T09:07:50.527Z,66.20
2019-01-25T09:10:21.231Z,65.70
2019-01-25T09:12:49.689Z,60.90
2019-01-25T09:15:26.838Z,59.30
2019-01-25T09:17:55.298Z,58.50
2019-01-25T09:20:23.683Z,59.70
2019-01-25T09:22:52.074Z,57.20
2019-01-25T09:25:20.509Z,57.10
2019-01-25T09:27:52.040Z,60.60
2019-01-25T09:30:22.804Z,63.00
2019-01-25T09:32:51.274Z,64.80
2019-01-25T09:35:19.744Z,65.80
2019-01-25T09:37:48.698Z,69.80
2019-01-25T09:40:22.767Z,73.40
2019-01-25T09:42:51.655Z,75.60
2019-01-25T09:45:20.189Z,77.20
2019-01-25T09:47:48.644Z,78.60
2019-01-25T09:50:19.186Z,79.80
2019-01-25T09:52:47.811Z,80.20
2019-01-25T09:55:18.660Z,78.50
2019-01-25T09:57:50.120Z,78.20
2019-01-25T10:00:33.914Z,76.00
2019-01-25T10:03:02.387Z,75.30
2019-01-25T10:05:30.744Z,72.40
2019-01-25T10:07:59.199Z,68.70
2019-01-25T10:10:27.638Z,67.50
2019-01-25T10:12:56.059Z,67.90
2019-01-25T10:15:28.990Z,66.70
2019-01-25T10:17:57.396Z,65.40
2019-01-25T10:20:25.878Z,66.30
2019-01-25T10:22:54.309Z,65.30
2019-01-25T10:25:22.704Z,67.80
2019-01-25T10:27:51.192Z,70.10
2019-01-25T10:30:22.971Z,71.20
2019-01-25T10:32:51.471Z,72.20
2019-01-25T10:35:20.032Z,73.80
2019-01-25T10:37:48.522Z,73.90
2019-01-25T10:40:20.946Z,71.00
2019-01-25T10:42:53.219Z,70.00
2019-01-25T10:45:25.642Z,66.50
2019-01-25T10:47:54.890Z,65.70
2019-01-25T10:50:23.363Z,68.40
2019-01-25T10:52:51.747Z,69.90
2019-01-25T10:55:20.237Z,71.60
2019-01-25T10:57:48.631Z,73.60
2019-01-25T11:00:19.425Z,73.00
2019-01-25T11:02:47.768Z,73.30
2019-01-25T11:05:19.169Z,72.80
2019-01-25T11:07:47.596Z,73.50
2019-01-25T11:10:15.975Z,74.10
2019-01-25T11:12:44.398Z,74.50
2019-01-25T11:15:21.314Z,73.90
2019-01-25T11:17:49.731Z,74.70
2019-01-25T11:20:20.412Z,72.90
2019-01-25T11:22:48.829Z,72.30
2019-01-25T11:25:23.250Z,72.70
2019-01-25T11:27:51.636Z,71.20
2019-01-25T11:30:20.069Z,70.90
2019-01-25T11:32:48.443Z,71.30
2019-01-25T11:35:17.028Z,68.40
2019-01-25T11:37:48.584Z,69.80
2019-01-25T11:40:34.816Z,69.80
2019-01-25T11:43:08.635Z,68.20
2019-01-25T11:45:33.283Z,66.80
2019-01-25T11:48:01.676Z,68.30
2019-01-25T11:50:30.056Z,68.40
2019-01-25T11:52:58.492Z,70.90
2019-01-25T11:55:29.660Z,71.50
2019-01-25T11:57:58.073Z,72.40
2019-01-25T12:00:31.663Z,73.10
2019-01-25T12:03:00.151Z,72.50
2019-01-25T12:05:28.556Z,73.40
2019-01-25T12:07:56.980Z,71.50
2019-01-25T12:10:27.917Z,73.80
2019-01-25T12:12:56.324Z,77.50
2019-01-25T12:15:24.965Z,78.60
2019-01-25T12:17:53.344Z,79.10
2019-01-25T12:20:27.687Z,79.90
2019-01-25T12:22:56.126Z,80.30
2019-01-25T12:25:24.671Z,79.40
2019-01-25T12:27:53.098Z,80.40
2019-01-25T12:30:38.195Z,80.60
2019-01-25T12:33:07.898Z,80.40
2019-01-25T12:35:39.207Z,80.60
2019-01-25T12:38:07.989Z,81.50
2019-01-25T12:40:36.416Z,82.00
2019-01-25T12:43:05.085Z,82.50
2019-01-25T12:45:33.509Z,84.60
2019-01-25T12:48:01.932Z,84.00
2019-01-25T12:50:33.811Z,84.00
2019-01-25T12:53:03.539Z,82.70
2019-01-25T12:55:32.986Z,84.00
2019-01-25T12:58:02.044Z,84.20
2019-01-25T13:00:31.035Z,82.40
2019-01-25T13:03:00.092Z,84.00
2019-01-25T13:05:31.109Z,85.80
2019-01-25T13:07:59.534Z,86.30
2019-01-25T13:10:28.577Z,89.50
2019-01-25T13:12:57.004Z,89.00
2019-01-25T13:15:25.550Z,87.60
2019-01-25T13:17:53.976Z,88.30
2019-01-25T13:20:25.199Z,88.00
2019-01-25T13:22:53.905Z,89.20
2019-01-25T13:25:22.345Z,89.80
2019-01-25T13:27:50.824Z,90.10
2019-01-25T13:30:30.016Z,90.00
2019-01-25T13:33:05.377Z,90.10
2019-01-25T13:35:38.300Z,90.50
2019-01-25T13:38:10.339Z,90.60
2019-01-25T13:40:39.568Z,91.20
2019-01-25T13:43:09.202Z,91.00
2019-01-25T13:45:37.982Z,90.90
2019-01-25T13:48:06.650Z,91.30
2019-01-25T13:50:35.567Z,91.00
2019-01-25T13:53:04.491Z,91.40
2019-01-25T13:55:35.040Z,91.90
2019-01-25T13:58:03.785Z,92.50
2019-01-25T14:00:36.522Z,92.50
2019-01-25T14:03:05.251Z,92.80
2019-01-25T14:05:34.197Z,92.60
2019-01-25T14:08:05.940Z,92.40
2019-01-25T14:10:36.145Z,92.80
2019-01-25T14:13:05.810Z,92.00
2019-01-25T14:15:37.245Z,92.40
2019-01-25T14:18:08.877Z,92.70
2019-01-25T14:20:37.806Z,93.60
2019-01-25T14:23:06.461Z,93.10
2019-01-25T14:25:35.250Z,93.40
2019-01-25T14:28:04.151Z,93.50
2019-01-25T14:30:37.888Z,93.50
2019-01-25T14:33:07.060Z,93.80
2019-01-25T14:35:36.654Z,94.10
2019-01-25T14:38:05.374Z,93.90
2019-01-25T14:40:34.649Z,94.20
2019-01-25T14:43:03.147Z,94.60
2019-01-25T14:45:33.373Z,94.70
2019-01-25T14:48:05.927Z,94.60
2019-01-25T14:50:34.627Z,94.90
2019-01-25T14:53:03.247Z,94.80
2019-01-25T14:55:31.964Z,94.90
2019-01-25T14:58:00.598Z,95.10
2019-01-25T15:00:29.230Z,95.20
2019-01-25T15:02:58.181Z,95.00
2019-01-25T15:05:27.071Z,94.90
2019-01-25T15:07:55.688Z,95.00
2019-01-25T15:10:25.112Z,94.90
2019-01-25T15:12:56.255Z,94.70
2019-01-25T15:15:25.342Z,94.60
2019-01-25T15:17:54.202Z,94.90
2019-01-25T15:20:27.127Z,95.10
2019-01-25T15:22:56.692Z,95.30
2019-01-25T15:25:25.367Z,95.30
2019-01-25T15:27:53.920Z,95.40
2019-01-25T15:30:24.983Z,95.70
2019-01-25T15:32:53.576Z,95.90
2019-01-25T15:35:22.709Z,96.30
2019-01-25T15:37:51.688Z,96.50
2019-01-25T15:40:21.914Z,96.80
2019-01-25T15:42:51.048Z,96.90
2019-01-25T15:45:20.921Z,97.20
2019-01-25T15:47:51.030Z,97.30
2019-01-25T15:50:27.775Z,97.40
2019-01-25T15:52:56.293Z,97.50
2019-01-25T15:55:24.927Z,97.50
2019-01-25T15:57:53.438Z,97.80
2019-01-25T16:00:24.388Z,97.90
2019-01-25T16:02:53.425Z,97.90
2019-01-25T16:05:22.679Z,97.90
2019-01-25T16:07:51.082Z,97.90
2019-01-25T16:10:21.861Z,98.10
2019-01-25T16:12:50.537Z,98.10
2019-01-25T16:15:21.370Z,98.50
2019-01-25T16:17:49.859Z,98.60
2019-01-25T16:20:19.086Z,98.30
2019-01-25T16:22:49.053Z,98.20
2019-01-25T16:25:20.378Z,98.00
2019-01-25T16:27:48.806Z,98.10
2019-01-25T16:30:23.326Z,98.10
2019-01-25T16:32:51.736Z,98.20
2019-01-25T16:35:20.155Z,98.10
2019-01-25T16:37:48.579Z,98.10
2019-01-25T16:40:19.878Z,98.00
2019-01-25T16:42:48.308Z,98.10
2019-01-25T16:45:25.593Z,98.30
2019-01-25T16:47:54.030Z,98.50
2019-01-25T16:50:23.774Z,98.70
2019-01-25T16:52:52.507Z,98.70
2019-01-25T16:55:20.919Z,98.80
2019-01-25T16:57:49.319Z,98.70
2019-01-25T17:00:26.318Z,98.80
2019-01-25T17:02:54.707Z,98.80
2019-01-25T17:05:23.184Z,98.80
2019-01-25T17:07:51.606Z,98.90
2019-01-25T17:10:20.033Z,98.80
2019-01-25T17:12:48.415Z,98.80
2019-01-25T17:15:17.775Z,98.90
2019-01-25T17:17:46.197Z,98.90
2019-01-25T17:20:21.216Z,98.80
2019-01-25T17:22:47.397Z,98.90
2019-01-25T17:25:15.778Z,99.00
2019-01-25T17:27:44.286Z,98.90
2019-01-25T17:30:18.822Z,99.00
2019-01-25T17:32:47.192Z,99.00
2019-01-25T17:35:15.675Z,98.90
2019-01-25T17:37:44.078Z,98.90
2019-01-25T17:40:15.496Z,99.00
2019-01-25T17:42:43.879Z,98.90
2019-01-25T17:45:12.958Z,98.80
2019-01-25T17:47:41.346Z,98.90
2019-01-25T17:50:14.641Z,99.00
2019-01-25T17:52:44.741Z,98.90
2019-01-25T17:55:15.533Z,98.90
2019-01-25T17:57:43.945Z,98.80
2019-01-25T18:00:20.156Z,98.90
2019-01-25T18:02:48.577Z,98.70
2019-01-25T18:05:16.963Z,98.70
2019-01-25T18:07:45.392Z,98.70
2019-01-25T18:10:19.588Z,98.80
2019-01-25T18:12:47.980Z,98.90
2019-01-25T18:15:17.935Z,98.70
2019-01-25T18:17:46.331Z,98.80
2019-01-25T18:20:22.138Z,98.60
2019-01-25T18:22:50.617Z,98.60
2019-01-25T18:25:41.247Z,98.60
2019-01-25T18:28:15.942Z,98.50
2019-01-25T18:30:56.731Z,98.40
2019-01-25T18:33:25.127Z,98.40
2019-01-25T18:35:53.658Z,98.20
2019-01-25T18:38:22.052Z,98.20
2019-01-25T18:40:50.497Z,98.20
2019-01-25T18:43:18.886Z,98.30
2019-01-25T18:45:47.315Z,98.20
2019-01-25T18:48:15.720Z,98.10
2019-01-25T18:50:44.106Z,98.60
2019-01-25T18:53:12.559Z,98.10
2019-01-25T18:55:40.944Z,98.10
2019-01-25T18:58:09.381Z,98.10
2019-01-25T19:00:37.779Z,98.10
2019-01-25T19:03:06.206Z,98.00
2019-01-25T19:05:35.320Z,98.10
2019-01-25T19:08:04.005Z,98.00
2019-01-25T19:10:32.386Z,98.00
2019-01-25T19:13:00.820Z,98.00
2019-01-25T19:15:30.784Z,98.00
2019-01-25T19:17:59.166Z,97.90
2019-01-25T19:20:27.601Z,97.90
2019-01-25T19:22:55.998Z,97.90
2019-01-25T19:25:24.715Z,98.00
2019-01-25T19:27:56.338Z,97.90
2019-01-25T19:30:36.778Z,97.90
2019-01-25T19:33:07.850Z,98.00
2019-01-25T19:35:36.873Z,98.00
2019-01-25T19:38:06.668Z,98.00
2019-01-25T19:40:38.248Z,98.00
2019-01-25T19:43:07.326Z,97.80
2019-01-25T19:45:35.733Z,97.90
2019-01-25T19:48:04.423Z,98.00
2019-01-25T19:50:32.823Z,97.80
2019-01-25T19:53:01.265Z,97.80
2019-01-25T19:55:33.327Z,97.80
2019-01-25T19:58:04.219Z,97.90
2019-01-25T20:00:38.300Z,98.00
2019-01-25T20:03:07.432Z,98.00
2019-01-25T20:05:35.847Z,98.10
2019-01-25T20:08:04.523Z,98.00
2019-01-25T20:10:32.957Z,98.00
2019-01-25T20:13:03.553Z,98.00
2019-01-25T20:15:33.579Z,98.00
2019-01-25T20:18:01.954Z,98.10
2019-01-25T20:20:33.376Z,97.80
2019-01-25T20:23:01.950Z,97.80
2019-01-25T20:25:30.400Z,97.70
2019-01-25T20:27:58.821Z,97.70
2019-01-25T20:30:32.444Z,97.70
2019-01-25T20:33:02.366Z,97.60
2019-01-25T20:35:32.900Z,97.50
2019-01-25T20:38:01.728Z,97.60
2019-01-25T20:40:30.119Z,97.40
2019-01-25T20:42:58.861Z,97.20
2019-01-25T20:45:34.732Z,97.20
2019-01-25T20:48:13.456Z,96.90
2019-01-25T20:50:59.752Z,96.80
2019-01-25T20:53:30.441Z,96.60
2019-01-25T20:55:58.872Z,96.50
2019-01-25T20:58:28.976Z,96.30
2019-01-25T21:00:57.522Z,96.40
2019-01-25T21:03:27.854Z,96.50
2019-01-25T21:05:58.994Z,96.50
2019-01-25T21:08:28.758Z,96.70
2019-01-25T21:11:02.275Z,97.10
2019-01-25T21:13:30.993Z,97.40
2019-01-25T21:16:00.691Z,97.90
2019-01-25T21:18:29.414Z,98.20
2019-01-25T21:20:57.823Z,98.30
2019-01-25T21:23:26.220Z,98.80
2019-01-25T21:25:54.671Z,99.10
2019-01-25T21:28:23.136Z,99.60
2019-01-25T21:30:51.564Z,99.70
2019-01-25T21:33:19.967Z,99.90
2019-01-25T21:35:48.389Z,99.90
2019-01-25T21:38:16.775Z,99.90
2019-01-25T21:40:45.260Z,99.90
2019-01-25T21:43:13.687Z,99.90
2019-01-25T21:45:43.392Z,99.90
2019-01-25T21:48:12.071Z,99.90
2019-01-25T21:50:43.112Z,99.90
2019-01-25T21:53:11.894Z,99.90
2019-01-25T21:55:40.404Z,99.90
2019-01-25T21:58:09.084Z,99.90
2019-01-25T22:00:38.124Z,99.90
2019-01-25T22:03:07.062Z,99.90
2019-01-25T22:05:35.680Z,99.90
2019-01-25T22:08:04.247Z,99.90
2019-01-25T22:10:38.742Z,99.90
2019-01-25T22:13:08.127Z,99.90
2019-01-25T22:15:36.615Z,99.90
2019-01-25T22:18:05.312Z,99.90
2019-01-25T22:20:33.734Z,99.90
2019-01-25T22:23:02.548Z,99.90
2019-01-25T22:25:31.187Z,99.90
2019-01-25T22:27:59.666Z,99.90
2019-01-25T22:30:29.023Z,99.90
2019-01-25T22:32:57.576Z,99.90
2019-01-25T22:35:43.244Z,99.90
2019-01-25T22:38:11.639Z,99.90
2019-01-25T22:40:40.207Z,99.90
2019-01-25T22:43:08.609Z,99.90
2019-01-25T22:45:37.036Z,99.90
2019-01-25T22:48:05.590Z,99.90
2019-01-25T22:50:34.749Z,99.90
2019-01-25T22:53:03.269Z,99.90
2019-01-25T22:55:31.790Z,99.90
2019-01-25T22:58:00.215Z,99.90
2019-01-25T23:00:55.809Z,99.90
2019-01-25T23:03:30.406Z,99.90
2019-01-25T23:06:11.023Z,99.90
2019-01-25T23:08:39.447Z,99.90
2019-01-25T23:11:09.309Z,99.90
2019-01-25T23:13:37.693Z,99.90
2019-01-25T23:16:06.670Z,99.90
2019-01-25T23:18:35.207Z,99.90
2019-01-25T23:21:03.618Z,99.90
2019-01-25T23:23:32.074Z,99.90
2019-01-25T23:26:01.799Z,99.90
2019-01-25T23:28:30.466Z,99.90
2019-01-25T23:30:58.982Z,99.90
2019-01-25T23:33:27.374Z,99.90
2019-01-25T23:35:55.872Z,99.90
2019-01-25T23:38:24.287Z,99.90
2019-01-25T23:40:52.740Z,99.90
2019-01-25T23:43:21.158Z,99.90
2019-01-25T23:45:49.559Z,99.90
2019-01-25T23:48:17.987Z,99.90
2019-01-25T23:50:46.524Z,99.90
2019-01-25T23:53:14.954Z,99.90
2019-01-25T23:55:43.496Z,99.90
2019-01-25T23:58:12.039Z,99.90
